sensor_id;sensor_type;location;lat;lon;timestamp;P1;durP1;ratioP1;P2;durP2;ratioP2
19569;SDS011;9931;51.458;7.256;2023-08-24T00:00:11;18.70;;;1.60;;
19569;SDS011;9931;51.458;7.256;2023-08-24T00:02:36;22.33;;;1.73;;
19569;SDS011;9931;51.458;7.256;2023-08-24T00:05:02;48.55;;;3.47;;
19569;SDS011;9931;51.458;7.256;2023-08-24T00:07:27;28.17;;;2.20;;
19569;SDS011;9931;51.458;7.256;2023-08-24T00:09:53;23.63;;;1.83;;
19569;SDS011;9931;51.458;7.256;2023-08-24T00:12:18;16.45;;;1.40;;
19569;SDS011;9931;51.458;7.256;2023-08-24T00:14:43;15.75;;;1.33;;
19569;SDS011;9931;51.458;7.256;2023-08-24T00:17:08;17.65;;;1.50;;
19569;SDS011;9931;51.458;7.256;2023-08-24T00:19:34;11.70;;;1.00;;
19569;SDS011;9931;51.458;7.256;2023-08-24T00:21:59;22.73;;;1.75;;
19569;SDS011;9931;51.458;7.256;2023-08-24T00:24:24;18.42;;;1.55;;
19569;SDS011;9931;51.458;7.256;2023-08-24T00:26:49;18.10;;;1.47;;
19569;SDS011;9931;51.458;7.256;2023-08-24T00:29:14;10.05;;;0.88;;
19569;SDS011;9931;51.458;7.256;2023-08-24T00:31:40;18.30;;;1.60;;
19569;SDS011;9931;51.458;7.256;2023-08-24T00:34:06;5.95;;;0.73;;
19569;SDS011;9931;51.458;7.256;2023-08-24T00:36:31;39.90;;;2.85;;
19569;SDS011;9931;51.458;7.256;2023-08-24T00:38:56;24.63;;;2.00;;
19569;SDS011;9931;51.458;7.256;2023-08-24T00:41:21;22.47;;;1.90;;
19569;SDS011;9931;51.458;7.256;2023-08-24T00:43:47;34.80;;;2.45;;
19569;SDS011;9931;51.458;7.256;2023-08-24T00:46:12;19.08;;;1.63;;
19569;SDS011;9931;51.458;7.256;2023-08-24T00:48:38;19.77;;;1.67;;
19569;SDS011;9931;51.458;7.256;2023-08-24T00:51:03;21.58;;;1.73;;
19569;SDS011;9931;51.458;7.256;2023-08-24T00:53:29;17.55;;;1.35;;
19569;SDS011;9931;51.458;7.256;2023-08-24T00:55:55;12.43;;;1.13;;
19569;SDS011;9931;51.458;7.256;2023-08-24T00:58:20;26.40;;;2.10;;
19569;SDS011;9931;51.458;7.256;2023-08-24T01:00:45;40.42;;;2.95;;
19569;SDS011;9931;51.458;7.256;2023-08-24T01:03:11;17.33;;;1.50;;
19569;SDS011;9931;51.458;7.256;2023-08-24T01:05:36;18.42;;;1.55;;
19569;SDS011;9931;51.458;7.256;2023-08-24T01:08:01;36.05;;;2.65;;
19569;SDS011;9931;51.458;7.256;2023-08-24T01:10:28;23.02;;;1.80;;
19569;SDS011;9931;51.458;7.256;2023-08-24T01:13:02;16.92;;;1.45;;
19569;SDS011;9931;51.458;7.256;2023-08-24T01:18:00;9.57;;;0.93;;
19569;SDS011;9931;51.458;7.256;2023-08-24T01:20:29;18.33;;;1.50;;
19569;SDS011;9931;51.458;7.256;2023-08-24T01:23:03;15.50;;;1.30;;
19569;SDS011;9931;51.458;7.256;2023-08-24T01:25:34;14.25;;;1.27;;
19569;SDS011;9931;51.458;7.256;2023-08-24T01:28:02;21.85;;;1.75;;
19569;SDS011;9931;51.458;7.256;2023-08-24T01:30:28;8.15;;;0.88;;
19569;SDS011;9931;51.458;7.256;2023-08-24T01:32:55;14.68;;;1.35;;
19569;SDS011;9931;51.458;7.256;2023-08-24T01:35:21;31.83;;;2.33;;
19569;SDS011;9931;51.458;7.256;2023-08-24T01:37:46;19.42;;;1.60;;
19569;SDS011;9931;51.458;7.256;2023-08-24T01:40:16;16.05;;;1.38;;
19569;SDS011;9931;51.458;7.256;2023-08-24T01:42:51;7.82;;;0.80;;
19569;SDS011;9931;51.458;7.256;2023-08-24T01:45:19;30.38;;;2.28;;
19569;SDS011;9931;51.458;7.256;2023-08-24T01:47:45;19.75;;;1.67;;
19569;SDS011;9931;51.458;7.256;2023-08-24T01:50:12;20.33;;;1.70;;
19569;SDS011;9931;51.458;7.256;2023-08-24T01:52:37;26.92;;;2.13;;
19569;SDS011;9931;51.458;7.256;2023-08-24T01:55:03;22.27;;;1.80;;
19569;SDS011;9931;51.458;7.256;2023-08-24T01:57:28;22.02;;;1.77;;
19569;SDS011;9931;51.458;7.256;2023-08-24T01:59:53;20.25;;;1.65;;
19569;SDS011;9931;51.458;7.256;2023-08-24T02:02:18;10.73;;;1.05;;
19569;SDS011;9931;51.458;7.256;2023-08-24T02:04:44;49.50;;;3.50;;
19569;SDS011;9931;51.458;7.256;2023-08-24T02:07:09;17.98;;;1.55;;
19569;SDS011;9931;51.458;7.256;2023-08-24T02:09:34;12.87;;;1.10;;
19569;SDS011;9931;51.458;7.256;2023-08-24T02:11:59;35.77;;;2.70;;
19569;SDS011;9931;51.458;7.256;2023-08-24T02:14:24;12.00;;;1.08;;
19569;SDS011;9931;51.458;7.256;2023-08-24T02:16:49;40.10;;;2.90;;
19569;SDS011;9931;51.458;7.256;2023-08-24T02:19:15;8.00;;;0.80;;
19569;SDS011;9931;51.458;7.256;2023-08-24T02:21:40;21.90;;;1.80;;
19569;SDS011;9931;51.458;7.256;2023-08-24T02:24:06;13.43;;;1.15;;
19569;SDS011;9931;51.458;7.256;2023-08-24T02:26:31;18.60;;;1.42;;
19569;SDS011;9931;51.458;7.256;2023-08-24T02:28:56;16.58;;;1.48;;
19569;SDS011;9931;51.458;7.256;2023-08-24T02:31:22;16.85;;;1.48;;
19569;SDS011;9931;51.458;7.256;2023-08-24T02:33:47;29.97;;;2.20;;
19569;SDS011;9931;51.458;7.256;2023-08-24T02:36:14;15.90;;;1.40;;
19569;SDS011;9931;51.458;7.256;2023-08-24T02:38:40;15.25;;;1.40;;
19569;SDS011;9931;51.458;7.256;2023-08-24T02:41:06;23.15;;;1.85;;
19569;SDS011;9931;51.458;7.256;2023-08-24T02:43:32;18.30;;;1.58;;
19569;SDS011;9931;51.458;7.256;2023-08-24T02:46:00;24.77;;;2.00;;
19569;SDS011;9931;51.458;7.256;2023-08-24T02:48:26;24.58;;;1.90;;
19569;SDS011;9931;51.458;7.256;2023-08-24T02:50:52;19.13;;;1.65;;
19569;SDS011;9931;51.458;7.256;2023-08-24T02:53:17;13.60;;;1.15;;
19569;SDS011;9931;51.458;7.256;2023-08-24T02:55:42;23.80;;;1.95;;
19569;SDS011;9931;51.458;7.256;2023-08-24T02:58:08;18.45;;;1.63;;
19569;SDS011;9931;51.458;7.256;2023-08-24T03:00:33;15.98;;;1.48;;
19569;SDS011;9931;51.458;7.256;2023-08-24T03:02:58;19.90;;;1.73;;
19569;SDS011;9931;51.458;7.256;2023-08-24T03:05:23;13.85;;;1.38;;
19569;SDS011;9931;51.458;7.256;2023-08-24T03:07:49;16.23;;;1.45;;
19569;SDS011;9931;51.458;7.256;2023-08-24T03:10:14;21.47;;;1.80;;
19569;SDS011;9931;51.458;7.256;2023-08-24T03:12:39;15.70;;;1.48;;
19569;SDS011;9931;51.458;7.256;2023-08-24T03:15:04;12.45;;;1.20;;
19569;SDS011;9931;51.458;7.256;2023-08-24T03:17:30;17.30;;;1.63;;
19569;SDS011;9931;51.458;7.256;2023-08-24T03:19:55;34.70;;;2.77;;
19569;SDS011;9931;51.458;7.256;2023-08-24T03:22:21;17.80;;;1.57;;
19569;SDS011;9931;51.458;7.256;2023-08-24T03:24:46;13.68;;;1.33;;
19569;SDS011;9931;51.458;7.256;2023-08-24T03:27:11;12.15;;;1.17;;
19569;SDS011;9931;51.458;7.256;2023-08-24T03:29:36;55.65;;;3.90;;
19569;SDS011;9931;51.458;7.256;2023-08-24T03:32:02;16.33;;;1.50;;
19569;SDS011;9931;51.458;7.256;2023-08-24T03:34:27;13.75;;;1.35;;
19569;SDS011;9931;51.458;7.256;2023-08-24T03:36:52;9.60;;;1.03;;
19569;SDS011;9931;51.458;7.256;2023-08-24T03:39:17;33.15;;;2.58;;
19569;SDS011;9931;51.458;7.256;2023-08-24T03:41:42;36.37;;;2.93;;
19569;SDS011;9931;51.458;7.256;2023-08-24T03:44:07;17.67;;;1.65;;
19569;SDS011;9931;51.458;7.256;2023-08-24T03:46:33;37.93;;;2.77;;
19569;SDS011;9931;51.458;7.256;2023-08-24T03:48:58;14.02;;;1.33;;
19569;SDS011;9931;51.458;7.256;2023-08-24T03:51:24;16.17;;;1.43;;
19569;SDS011;9931;51.458;7.256;2023-08-24T03:53:49;84.80;;;5.87;;
19569;SDS011;9931;51.458;7.256;2023-08-24T03:56:14;13.77;;;1.33;;
19569;SDS011;9931;51.458;7.256;2023-08-24T03:58:39;22.40;;;1.98;;
19569;SDS011;9931;51.458;7.256;2023-08-24T04:01:04;17.85;;;1.55;;
19569;SDS011;9931;51.458;7.256;2023-08-24T04:03:31;13.52;;;1.30;;
19569;SDS011;9931;51.458;7.256;2023-08-24T04:05:57;19.80;;;1.77;;
19569;SDS011;9931;51.458;7.256;2023-08-24T04:08:22;20.00;;;1.70;;
19569;SDS011;9931;51.458;7.256;2023-08-24T04:10:47;32.20;;;2.57;;
19569;SDS011;9931;51.458;7.256;2023-08-24T04:13:12;20.97;;;1.80;;
19569;SDS011;9931;51.458;7.256;2023-08-24T04:15:38;19.13;;;1.65;;
19569;SDS011;9931;51.458;7.256;2023-08-24T04:18:03;11.17;;;1.13;;
19569;SDS011;9931;51.458;7.256;2023-08-24T04:20:28;4.43;;;0.60;;
19569;SDS011;9931;51.458;7.256;2023-08-24T04:22:54;23.20;;;2.00;;
19569;SDS011;9931;51.458;7.256;2023-08-24T04:25:19;20.40;;;1.80;;
19569;SDS011;9931;51.458;7.256;2023-08-24T04:27:45;21.75;;;1.80;;
19569;SDS011;9931;51.458;7.256;2023-08-24T04:30:10;14.07;;;1.30;;
19569;SDS011;9931;51.458;7.256;2023-08-24T04:32:37;18.55;;;1.75;;
19569;SDS011;9931;51.458;7.256;2023-08-24T04:35:02;15.63;;;1.50;;
19569;SDS011;9931;51.458;7.256;2023-08-24T04:37:28;18.63;;;1.67;;
19569;SDS011;9931;51.458;7.256;2023-08-24T04:39:53;12.98;;;1.23;;
19569;SDS011;9931;51.458;7.256;2023-08-24T04:42:18;26.13;;;2.15;;
19569;SDS011;9931;51.458;7.256;2023-08-24T04:44:43;55.67;;;4.03;;
19569;SDS011;9931;51.458;7.256;2023-08-24T04:47:08;22.23;;;1.92;;
19569;SDS011;9931;51.458;7.256;2023-08-24T04:49:35;21.08;;;1.90;;
19569;SDS011;9931;51.458;7.256;2023-08-24T04:52:00;13.15;;;1.33;;
19569;SDS011;9931;51.458;7.256;2023-08-24T04:54:25;16.73;;;1.57;;
19569;SDS011;9931;51.458;7.256;2023-08-24T04:56:51;29.50;;;2.42;;
19569;SDS011;9931;51.458;7.256;2023-08-24T04:59:16;30.30;;;2.60;;
19569;SDS011;9931;51.458;7.256;2023-08-24T05:01:41;18.95;;;1.67;;
19569;SDS011;9931;51.458;7.256;2023-08-24T05:04:06;13.95;;;1.30;;
19569;SDS011;9931;51.458;7.256;2023-08-24T05:06:32;21.77;;;1.83;;
19569;SDS011;9931;51.458;7.256;2023-08-24T05:08:57;42.28;;;3.28;;
19569;SDS011;9931;51.458;7.256;2023-08-24T05:11:23;14.38;;;1.27;;
19569;SDS011;9931;51.458;7.256;2023-08-24T05:13:51;30.67;;;2.40;;
19569;SDS011;9931;51.458;7.256;2023-08-24T05:16:16;15.32;;;1.52;;
19569;SDS011;9931;51.458;7.256;2023-08-24T05:18:42;10.90;;;1.03;;
19569;SDS011;9931;51.458;7.256;2023-08-24T05:21:07;15.32;;;1.42;;
19569;SDS011;9931;51.458;7.256;2023-08-24T05:23:32;20.63;;;1.80;;
19569;SDS011;9931;51.458;7.256;2023-08-24T05:25:58;30.15;;;2.53;;
19569;SDS011;9931;51.458;7.256;2023-08-24T05:28:24;7.88;;;0.85;;
19569;SDS011;9931;51.458;7.256;2023-08-24T05:30:50;17.77;;;1.63;;
19569;SDS011;9931;51.458;7.256;2023-08-24T05:33:16;15.95;;;1.52;;
19569;SDS011;9931;51.458;7.256;2023-08-24T05:35:41;16.35;;;1.45;;
19569;SDS011;9931;51.458;7.256;2023-08-24T05:38:07;29.73;;;2.33;;
19569;SDS011;9931;51.458;7.256;2023-08-24T05:40:33;16.23;;;1.43;;
19569;SDS011;9931;51.458;7.256;2023-08-24T05:42:58;34.70;;;2.67;;
19569;SDS011;9931;51.458;7.256;2023-08-24T05:45:24;18.97;;;1.70;;
19569;SDS011;9931;51.458;7.256;2023-08-24T05:47:49;18.20;;;1.60;;
19569;SDS011;9931;51.458;7.256;2023-08-24T05:50:14;23.25;;;1.92;;
19569;SDS011;9931;51.458;7.256;2023-08-24T05:52:39;22.05;;;1.90;;
19569;SDS011;9931;51.458;7.256;2023-08-24T05:55:05;17.88;;;1.58;;
19569;SDS011;9931;51.458;7.256;2023-08-24T05:57:30;16.75;;;1.50;;
19569;SDS011;9931;51.458;7.256;2023-08-24T05:59:55;19.70;;;1.57;;
19569;SDS011;9931;51.458;7.256;2023-08-24T06:02:21;12.03;;;1.13;;
19569;SDS011;9931;51.458;7.256;2023-08-24T06:04:46;18.20;;;1.60;;
19569;SDS011;9931;51.458;7.256;2023-08-24T06:07:11;16.65;;;1.48;;
19569;SDS011;9931;51.458;7.256;2023-08-24T06:09:36;14.02;;;1.40;;
19569;SDS011;9931;51.458;7.256;2023-08-24T06:12:01;23.80;;;2.05;;
19569;SDS011;9931;51.458;7.256;2023-08-24T06:14:27;21.08;;;1.80;;
19569;SDS011;9931;51.458;7.256;2023-08-24T06:16:52;25.73;;;2.15;;
19569;SDS011;9931;51.458;7.256;2023-08-24T06:19:21;18.13;;;1.65;;
19569;SDS011;9931;51.458;7.256;2023-08-24T06:21:46;37.20;;;2.90;;
19569;SDS011;9931;51.458;7.256;2023-08-24T06:24:11;20.10;;;1.70;;
19569;SDS011;9931;51.458;7.256;2023-08-24T06:26:36;37.20;;;2.83;;
19569;SDS011;9931;51.458;7.256;2023-08-24T06:29:02;36.83;;;3.00;;
19569;SDS011;9931;51.458;7.256;2023-08-24T06:31:27;18.83;;;1.67;;
19569;SDS011;9931;51.458;7.256;2023-08-24T06:33:52;47.45;;;3.40;;
19569;SDS011;9931;51.458;7.256;2023-08-24T06:36:18;18.23;;;1.58;;
19569;SDS011;9931;51.458;7.256;2023-08-24T06:38:43;23.20;;;2.03;;
19569;SDS011;9931;51.458;7.256;2023-08-24T06:41:08;31.40;;;2.58;;
19569;SDS011;9931;51.458;7.256;2023-08-24T06:43:37;21.05;;;1.70;;
19569;SDS011;9931;51.458;7.256;2023-08-24T06:46:04;14.30;;;1.40;;
19569;SDS011;9931;51.458;7.256;2023-08-24T06:48:29;19.60;;;1.70;;
19569;SDS011;9931;51.458;7.256;2023-08-24T06:50:54;19.10;;;1.60;;
19569;SDS011;9931;51.458;7.256;2023-08-24T06:53:19;11.17;;;1.03;;
19569;SDS011;9931;51.458;7.256;2023-08-24T06:55:44;19.15;;;1.65;;
19569;SDS011;9931;51.458;7.256;2023-08-24T06:58:09;16.80;;;1.50;;
19569;SDS011;9931;51.458;7.256;2023-08-24T07:00:35;15.82;;;1.42;;
19569;SDS011;9931;51.458;7.256;2023-08-24T07:03:00;22.60;;;1.95;;
19569;SDS011;9931;51.458;7.256;2023-08-24T07:05:25;15.63;;;1.40;;
19569;SDS011;9931;51.458;7.256;2023-08-24T07:07:51;18.77;;;1.60;;
19569;SDS011;9931;51.458;7.256;2023-08-24T07:10:16;18.55;;;1.90;;
19569;SDS011;9931;51.458;7.256;2023-08-24T07:12:42;26.08;;;2.13;;
19569;SDS011;9931;51.458;7.256;2023-08-24T07:15:10;18.73;;;1.65;;
19569;SDS011;9931;51.458;7.256;2023-08-24T07:17:35;22.92;;;2.13;;
19569;SDS011;9931;51.458;7.256;2023-08-24T07:20:00;5.03;;;0.70;;
19569;SDS011;9931;51.458;7.256;2023-08-24T07:22:25;35.38;;;2.90;;
19569;SDS011;9931;51.458;7.256;2023-08-24T07:24:54;34.65;;;2.80;;
19569;SDS011;9931;51.458;7.256;2023-08-24T07:27:19;13.98;;;2.08;;
19569;SDS011;9931;51.458;7.256;2023-08-24T07:29:45;24.00;;;3.78;;
19569;SDS011;9931;51.458;7.256;2023-08-24T07:32:10;34.47;;;4.32;;
19569;SDS011;9931;51.458;7.256;2023-08-24T07:34:35;13.82;;;2.65;;
19569;SDS011;9931;51.458;7.256;2023-08-24T07:37:00;23.23;;;2.80;;
19569;SDS011;9931;51.458;7.256;2023-08-24T07:39:26;18.00;;;3.53;;
19569;SDS011;9931;51.458;7.256;2023-08-24T07:41:51;19.95;;;2.30;;
19569;SDS011;9931;51.458;7.256;2023-08-24T07:44:16;16.92;;;2.15;;
19569;SDS011;9931;51.458;7.256;2023-08-24T07:46:41;32.55;;;2.88;;
19569;SDS011;9931;51.458;7.256;2023-08-24T07:49:07;11.85;;;1.88;;
19569;SDS011;9931;51.458;7.256;2023-08-24T07:51:32;14.77;;;2.22;;
19569;SDS011;9931;51.458;7.256;2023-08-24T07:53:58;23.45;;;3.30;;
19569;SDS011;9931;51.458;7.256;2023-08-24T07:56:23;20.25;;;2.97;;
19569;SDS011;9931;51.458;7.256;2023-08-24T07:58:48;23.98;;;2.88;;
19569;SDS011;9931;51.458;7.256;2023-08-24T08:01:13;18.93;;;2.97;;
19569;SDS011;9931;51.458;7.256;2023-08-24T08:03:39;31.77;;;3.53;;
19569;SDS011;9931;51.458;7.256;2023-08-24T08:06:04;23.30;;;2.70;;
19569;SDS011;9931;51.458;7.256;2023-08-24T08:08:29;27.17;;;2.85;;
19569;SDS011;9931;51.458;7.256;2023-08-24T08:10:58;30.52;;;3.30;;
19569;SDS011;9931;51.458;7.256;2023-08-24T08:13:24;17.45;;;2.70;;
19569;SDS011;9931;51.458;7.256;2023-08-24T08:15:49;20.65;;;2.97;;
19569;SDS011;9931;51.458;7.256;2023-08-24T08:18:15;22.60;;;2.80;;
19569;SDS011;9931;51.458;7.256;2023-08-24T08:20:42;22.80;;;3.35;;
19569;SDS011;9931;51.458;7.256;2023-08-24T08:23:07;26.42;;;4.00;;
19569;SDS011;9931;51.458;7.256;2023-08-24T08:25:33;25.73;;;4.07;;
19569;SDS011;9931;51.458;7.256;2023-08-24T08:27:58;36.60;;;7.35;;
19569;SDS011;9931;51.458;7.256;2023-08-24T08:30:23;19.90;;;5.97;;
19569;SDS011;9931;51.458;7.256;2023-08-24T08:32:48;25.60;;;7.17;;
19569;SDS011;9931;51.458;7.256;2023-08-24T08:35:16;14.23;;;6.47;;
19569;SDS011;9931;51.458;7.256;2023-08-24T08:37:41;17.40;;;5.32;;
19569;SDS011;9931;51.458;7.256;2023-08-24T08:40:08;30.25;;;6.43;;
19569;SDS011;9931;51.458;7.256;2023-08-24T08:42:34;21.67;;;5.22;;
19569;SDS011;9931;51.458;7.256;2023-08-24T08:45:00;15.50;;;7.57;;
19569;SDS011;9931;51.458;7.256;2023-08-24T08:47:28;26.95;;;8.60;;
19569;SDS011;9931;51.458;7.256;2023-08-24T08:49:53;30.80;;;8.15;;
19569;SDS011;9931;51.458;7.256;2023-08-24T08:52:20;23.85;;;8.65;;
19569;SDS011;9931;51.458;7.256;2023-08-24T08:54:45;26.90;;;7.40;;
19569;SDS011;9931;51.458;7.256;2023-08-24T08:57:10;90.22;;;12.52;;
19569;SDS011;9931;51.458;7.256;2023-08-24T08:59:36;18.38;;;6.10;;
19569;SDS011;9931;51.458;7.256;2023-08-24T09:02:02;22.15;;;10.02;;
19569;SDS011;9931;51.458;7.256;2023-08-24T09:04:28;30.35;;;9.70;;
19569;SDS011;9931;51.458;7.256;2023-08-24T09:06:54;26.00;;;9.10;;
19569;SDS011;9931;51.458;7.256;2023-08-24T09:09:21;18.08;;;8.35;;
19569;SDS011;9931;51.458;7.256;2023-08-24T09:11:47;9.77;;;8.70;;
19569;SDS011;9931;51.458;7.256;2023-08-24T09:14:13;24.27;;;7.80;;
19569;SDS011;9931;51.458;7.256;2023-08-24T09:16:39;52.85;;;10.35;;
19569;SDS011;9931;51.458;7.256;2023-08-24T09:19:04;24.35;;;9.10;;
19569;SDS011;9931;51.458;7.256;2023-08-24T09:21:30;25.45;;;8.27;;
19569;SDS011;9931;51.458;7.256;2023-08-24T09:23:56;20.73;;;7.68;;
19569;SDS011;9931;51.458;7.256;2023-08-24T09:26:34;19.25;;;7.78;;
19569;SDS011;9931;51.458;7.256;2023-08-24T09:29:00;24.23;;;6.93;;
19569;SDS011;9931;51.458;7.256;2023-08-24T09:31:35;30.98;;;8.68;;
19569;SDS011;9931;51.458;7.256;2023-08-24T09:34:04;20.73;;;8.90;;
19569;SDS011;9931;51.458;7.256;2023-08-24T09:36:35;41.00;;;11.88;;
19569;SDS011;9931;51.458;7.256;2023-08-24T09:39:01;12.98;;;10.73;;
19569;SDS011;9931;51.458;7.256;2023-08-24T09:41:45;27.52;;;11.52;;
19569;SDS011;9931;51.458;7.256;2023-08-24T09:44:11;19.60;;;12.02;;
19569;SDS011;9931;51.458;7.256;2023-08-24T09:46:39;53.30;;;17.30;;
19569;SDS011;9931;51.458;7.256;2023-08-24T09:49:05;28.10;;;17.77;;
19569;SDS011;9931;51.458;7.256;2023-08-24T09:51:31;26.95;;;19.05;;
19569;SDS011;9931;51.458;7.256;2023-08-24T09:53:57;21.65;;;15.95;;
19569;SDS011;9931;51.458;7.256;2023-08-24T09:56:26;34.10;;;17.83;;
19569;SDS011;9931;51.458;7.256;2023-08-24T09:58:53;34.65;;;20.23;;
19569;SDS011;9931;51.458;7.256;2023-08-24T10:01:18;22.38;;;17.27;;
19569;SDS011;9931;51.458;7.256;2023-08-24T10:03:44;32.47;;;19.80;;
19569;SDS011;9931;51.458;7.256;2023-08-24T10:06:11;29.70;;;21.98;;
19569;SDS011;9931;51.458;7.256;2023-08-24T10:08:37;21.98;;;20.38;;
19569;SDS011;9931;51.458;7.256;2023-08-24T10:11:04;31.27;;;22.38;;
19569;SDS011;9931;51.458;7.256;2023-08-24T10:13:45;22.40;;;20.20;;
19569;SDS011;9931;51.458;7.256;2023-08-24T10:16:13;23.05;;;20.33;;
19569;SDS011;9931;51.458;7.256;2023-08-24T10:18:40;22.98;;;20.52;;
19569;SDS011;9931;51.458;7.256;2023-08-24T10:21:05;32.13;;;21.30;;
19569;SDS011;9931;51.458;7.256;2023-08-24T10:23:31;25.98;;;23.58;;
19569;SDS011;9931;51.458;7.256;2023-08-24T10:25:56;31.50;;;29.58;;
19569;SDS011;9931;51.458;7.256;2023-08-24T10:28:23;37.05;;;34.05;;
19569;SDS011;9931;51.458;7.256;2023-08-24T10:30:50;40.72;;;36.97;;
19569;SDS011;9931;51.458;7.256;2023-08-24T10:33:16;42.90;;;40.33;;
19569;SDS011;9931;51.458;7.256;2023-08-24T10:35:41;39.88;;;36.63;;
19569;SDS011;9931;51.458;7.256;2023-08-24T10:38:07;39.45;;;36.08;;
19569;SDS011;9931;51.458;7.256;2023-08-24T10:42:57;38.50;;;34.92;;
19569;SDS011;9931;51.458;7.256;2023-08-24T10:45:23;35.13;;;31.58;;
19569;SDS011;9931;51.458;7.256;2023-08-24T10:47:51;40.40;;;36.85;;
19569;SDS011;9931;51.458;7.256;2023-08-24T10:50:16;37.65;;;34.03;;
19569;SDS011;9931;51.458;7.256;2023-08-24T10:52:45;30.02;;;27.13;;
19569;SDS011;9931;51.458;7.256;2023-08-24T10:55:26;31.10;;;28.05;;
19569;SDS011;9931;51.458;7.256;2023-08-24T10:57:58;45.40;;;26.35;;
19569;SDS011;9931;51.458;7.256;2023-08-24T11:00:27;33.72;;;28.83;;
19569;SDS011;9931;51.458;7.256;2023-08-24T11:02:53;33.63;;;30.38;;
19569;SDS011;9931;51.458;7.256;2023-08-24T11:05:23;35.70;;;32.13;;
19569;SDS011;9931;51.458;7.256;2023-08-24T11:08:04;37.88;;;33.95;;
19569;SDS011;9931;51.458;7.256;2023-08-24T11:10:33;39.30;;;36.28;;
19569;SDS011;9931;51.458;7.256;2023-08-24T11:13:12;42.80;;;38.85;;
19569;SDS011;9931;51.458;7.256;2023-08-24T11:15:41;37.03;;;33.70;;
19569;SDS011;9931;51.458;7.256;2023-08-24T11:20:44;41.40;;;37.85;;
19569;SDS011;9931;51.458;7.256;2023-08-24T11:23:10;43.75;;;40.05;;
19569;SDS011;9931;51.458;7.256;2023-08-24T11:25:36;52.58;;;36.10;;
19569;SDS011;9931;51.458;7.256;2023-08-24T11:28:02;41.25;;;37.60;;
19569;SDS011;9931;51.458;7.256;2023-08-24T11:30:28;34.85;;;32.70;;
19569;SDS011;9931;51.458;7.256;2023-08-24T11:32:54;32.38;;;29.45;;
19569;SDS011;9931;51.458;7.256;2023-08-24T11:35:19;27.73;;;25.73;;
19569;SDS011;9931;51.458;7.256;2023-08-24T11:37:50;29.20;;;24.90;;
19569;SDS011;9931;51.458;7.256;2023-08-24T11:40:16;28.33;;;25.40;;
19569;SDS011;9931;51.458;7.256;2023-08-24T11:42:41;27.15;;;23.67;;
19569;SDS011;9931;51.458;7.256;2023-08-24T11:45:16;30.08;;;21.88;;
19569;SDS011;9931;51.458;7.256;2023-08-24T11:47:41;28.40;;;16.55;;
19569;SDS011;9931;51.458;7.256;2023-08-24T11:50:07;19.73;;;15.98;;
19569;SDS011;9931;51.458;7.256;2023-08-24T11:52:38;21.55;;;14.15;;
19569;SDS011;9931;51.458;7.256;2023-08-24T11:55:03;20.30;;;16.05;;
19569;SDS011;9931;51.458;7.256;2023-08-24T11:57:29;63.13;;;16.98;;
19569;SDS011;9931;51.458;7.256;2023-08-24T11:59:58;24.70;;;14.95;;
19569;SDS011;9931;51.458;7.256;2023-08-24T12:02:23;14.23;;;12.80;;
19569;SDS011;9931;51.458;7.256;2023-08-24T12:04:49;24.67;;;14.07;;
19569;SDS011;9931;51.458;7.256;2023-08-24T12:07:14;22.40;;;13.13;;
19569;SDS011;9931;51.458;7.256;2023-08-24T12:09:40;15.75;;;12.40;;
19569;SDS011;9931;51.458;7.256;2023-08-24T12:12:05;24.58;;;14.07;;
19569;SDS011;9931;51.458;7.256;2023-08-24T12:14:40;21.33;;;15.45;;
19569;SDS011;9931;51.458;7.256;2023-08-24T12:17:11;21.17;;;14.10;;
19569;SDS011;9931;51.458;7.256;2023-08-24T12:19:36;22.83;;;14.65;;
19569;SDS011;9931;51.458;7.256;2023-08-24T12:22:02;23.92;;;17.10;;
19569;SDS011;9931;51.458;7.256;2023-08-24T12:24:28;24.75;;;17.23;;
19569;SDS011;9931;51.458;7.256;2023-08-24T12:26:56;22.38;;;14.68;;
19569;SDS011;9931;51.458;7.256;2023-08-24T12:29:27;28.55;;;14.73;;
19569;SDS011;9931;51.458;7.256;2023-08-24T12:31:56;19.83;;;15.37;;
19569;SDS011;9931;51.458;7.256;2023-08-24T12:34:21;25.50;;;14.80;;
19569;SDS011;9931;51.458;7.256;2023-08-24T12:36:46;21.98;;;13.93;;
19569;SDS011;9931;51.458;7.256;2023-08-24T12:39:11;22.48;;;14.27;;
19569;SDS011;9931;51.458;7.256;2023-08-24T12:41:40;24.42;;;15.20;;
19569;SDS011;9931;51.458;7.256;2023-08-24T12:44:05;32.00;;;13.02;;
19569;SDS011;9931;51.458;7.256;2023-08-24T12:46:32;51.70;;;13.15;;
19569;SDS011;9931;51.458;7.256;2023-08-24T12:48:58;19.38;;;11.13;;
19569;SDS011;9931;51.458;7.256;2023-08-24T12:51:23;25.35;;;10.65;;
19569;SDS011;9931;51.458;7.256;2023-08-24T12:53:49;43.63;;;10.68;;
19569;SDS011;9931;51.458;7.256;2023-08-24T12:56:15;18.55;;;10.48;;
19569;SDS011;9931;51.458;7.256;2023-08-24T12:58:40;40.55;;;11.20;;
19569;SDS011;9931;51.458;7.256;2023-08-24T13:01:05;24.45;;;8.70;;
19569;SDS011;9931;51.458;7.256;2023-08-24T13:03:31;23.27;;;6.55;;
19569;SDS011;9931;51.458;7.256;2023-08-24T13:05:56;29.88;;;5.65;;
19569;SDS011;9931;51.458;7.256;2023-08-24T13:08:21;23.98;;;4.75;;
19569;SDS011;9931;51.458;7.256;2023-08-24T13:10:46;20.95;;;4.25;;
19569;SDS011;9931;51.458;7.256;2023-08-24T13:13:12;20.40;;;3.40;;
19569;SDS011;9931;51.458;7.256;2023-08-24T13:15:37;16.67;;;3.00;;
19569;SDS011;9931;51.458;7.256;2023-08-24T13:18:02;24.38;;;3.38;;
19569;SDS011;9931;51.458;7.256;2023-08-24T13:20:28;25.58;;;3.30;;
19569;SDS011;9931;51.458;7.256;2023-08-24T13:22:53;22.43;;;3.27;;
19569;SDS011;9931;51.458;7.256;2023-08-24T13:25:19;22.17;;;3.58;;
19569;SDS011;9931;51.458;7.256;2023-08-24T13:27:44;19.30;;;3.97;;
19569;SDS011;9931;51.458;7.256;2023-08-24T13:30:09;30.40;;;5.25;;
19569;SDS011;9931;51.458;7.256;2023-08-24T13:32:34;29.23;;;5.35;;
19569;SDS011;9931;51.458;7.256;2023-08-24T13:35:00;23.88;;;4.65;;
19569;SDS011;9931;51.458;7.256;2023-08-24T13:37:25;20.55;;;4.75;;
19569;SDS011;9931;51.458;7.256;2023-08-24T13:39:50;25.58;;;5.18;;
19569;SDS011;9931;51.458;7.256;2023-08-24T13:42:16;54.03;;;7.20;;
19569;SDS011;9931;51.458;7.256;2023-08-24T13:44:41;23.45;;;5.75;;
19569;SDS011;9931;51.458;7.256;2023-08-24T13:47:08;16.07;;;5.57;;
19569;SDS011;9931;51.458;7.256;2023-08-24T13:49:33;32.03;;;15.23;;
19569;SDS011;9931;51.458;7.256;2023-08-24T13:51:58;36.33;;;12.13;;
19569;SDS011;9931;51.458;7.256;2023-08-24T13:54:23;52.17;;;16.43;;
19569;SDS011;9931;51.458;7.256;2023-08-24T13:56:51;34.05;;;16.50;;
19569;SDS011;9931;51.458;7.256;2023-08-24T13:59:18;22.02;;;4.82;;
19569;SDS011;9931;51.458;7.256;2023-08-24T14:01:44;19.77;;;6.63;;
19569;SDS011;9931;51.458;7.256;2023-08-24T14:04:09;26.57;;;4.67;;
19569;SDS011;9931;51.458;7.256;2023-08-24T14:06:35;43.25;;;5.43;;
19569;SDS011;9931;51.458;7.256;2023-08-24T14:09:01;25.00;;;6.13;;
19569;SDS011;9931;51.458;7.256;2023-08-24T14:11:27;22.85;;;8.35;;
19569;SDS011;9931;51.458;7.256;2023-08-24T14:13:53;42.80;;;20.38;;
19569;SDS011;9931;51.458;7.256;2023-08-24T14:16:18;16.08;;;5.43;;
19569;SDS011;9931;51.458;7.256;2023-08-24T14:18:47;27.30;;;9.48;;
19569;SDS011;9931;51.458;7.256;2023-08-24T14:21:12;21.98;;;5.93;;
19569;SDS011;9931;51.458;7.256;2023-08-24T14:23:38;27.80;;;5.13;;
19569;SDS011;9931;51.458;7.256;2023-08-24T14:26:03;24.92;;;6.95;;
19569;SDS011;9931;51.458;7.256;2023-08-24T14:31:13;22.42;;;4.80;;
19569;SDS011;9931;51.458;7.256;2023-08-24T14:33:38;30.27;;;6.00;;
19569;SDS011;9931;51.458;7.256;2023-08-24T14:36:03;15.20;;;5.73;;
19569;SDS011;9931;51.458;7.256;2023-08-24T14:38:28;19.83;;;3.15;;
19569;SDS011;9931;51.458;7.256;2023-08-24T14:40:54;17.90;;;3.10;;
19569;SDS011;9931;51.458;7.256;2023-08-24T14:43:19;30.50;;;4.00;;
19569;SDS011;9931;51.458;7.256;2023-08-24T14:45:44;25.48;;;2.90;;
19569;SDS011;9931;51.458;7.256;2023-08-24T14:48:09;22.95;;;2.47;;